Aldwick, United Kingdom
Current Conditions -  °F | °C
As of 3:20 PM on Saturday 25 Oct 2014 (Local Time) from EGGD Reporting Station
Scattered Clouds Scattered Clouds  
Wind Chill: 13°   Ceiling: Unl
Heat Index: 13°   Visibility: 6mi
Dew Point:   Wind: 14mph
Humidity: 77%   Direction: 220°SW
Pressure: 30.06"   Gusts: NA
Location:  51.34°N, 2.77°W
Report Text: EGGD 251420Z 22012KT 9999 FEW019 SCT044 13/09 Q1018
Loading
Personal Weather Stations






























Interactive Weather Map
Tropical Storm Tracking
New forecast layout! Learn more

10-Day Weather Forecast

Advertisements
Track Severe Weather on mobile